sensor_id;sensor_type;location;lat;lon;timestamp;pressure;altitude;pressure_sealevel;temperature;humidity
37832;BME280;23671;38.090;-122.570;2023-05-22T00:01:38;101232.44;;;27.29;49.96
37832;BME280;23671;38.090;-122.570;2023-05-22T00:04:08;101232.06;;;27.32;50.01
37832;BME280;23671;38.090;-122.570;2023-05-22T00:06:42;101227.63;;;27.31;49.82
37832;BME280;23671;38.090;-122.570;2023-05-22T00:09:09;101227.44;;;27.33;49.95
37832;BME280;23671;38.090;-122.570;2023-05-22T00:11:36;101225.56;;;27.33;49.45
37832;BME280;23671;38.090;-122.570;2023-05-22T00:14:05;101232.84;;;27.33;49.60
37832;BME280;23671;38.090;-122.570;2023-05-22T00:16:32;101227.63;;;27.31;49.46
37832;BME280;23671;38.090;-122.570;2023-05-22T00:18:59;101226.78;;;27.31;49.32
37832;BME280;23671;38.090;-122.570;2023-05-22T00:21:28;101225.97;;;27.30;49.40
37832;BME280;23671;38.090;-122.570;2023-05-22T00:24:02;101224.06;;;27.31;49.32
37832;BME280;23671;38.090;-122.570;2023-05-22T00:26:30;101228.69;;;27.30;49.17
37832;BME280;23671;38.090;-122.570;2023-05-22T00:28:57;101219.31;;;27.26;48.72
37832;BME280;23671;38.090;-122.570;2023-05-22T00:31:24;101220.34;;;27.25;48.87
37832;BME280;23671;38.090;-122.570;2023-05-22T00:33:51;101218.72;;;27.24;48.57
37832;BME280;23671;38.090;-122.570;2023-05-22T00:36:18;101218.94;;;27.23;48.64
37832;BME280;23671;38.090;-122.570;2023-05-22T00:38:45;101223.53;;;27.22;48.77
37832;BME280;23671;38.090;-122.570;2023-05-22T00:41:14;101228.31;;;27.20;48.67
37832;BME280;23671;38.090;-122.570;2023-05-22T00:43:41;101229.59;;;27.18;48.45
37832;BME280;23671;38.090;-122.570;2023-05-22T00:46:10;101232.53;;;27.16;48.48
37832;BME280;23671;38.090;-122.570;2023-05-22T00:48:38;101234.38;;;27.16;48.19
37832;BME280;23671;38.090;-122.570;2023-05-22T00:51:05;101231.28;;;27.12;48.05
37832;BME280;23671;38.090;-122.570;2023-05-22T00:53:33;101237.78;;;27.11;48.24
37832;BME280;23671;38.090;-122.570;2023-05-22T00:56:00;101230.91;;;27.09;47.86
37832;BME280;23671;38.090;-122.570;2023-05-22T00:58:29;101225.69;;;27.07;47.78
37832;BME280;23671;38.090;-122.570;2023-05-22T01:00:56;101241.34;;;27.05;47.92
37832;BME280;23671;38.090;-122.570;2023-05-22T01:03:23;101223.63;;;27.03;47.71
37832;BME280;23671;38.090;-122.570;2023-05-22T01:05:55;101223.84;;;27.01;47.69
37832;BME280;23671;38.090;-122.570;2023-05-22T01:08:22;101222.00;;;26.95;47.78
37832;BME280;23671;38.090;-122.570;2023-05-22T01:11:01;101216.97;;;26.92;47.81
37832;BME280;23671;38.090;-122.570;2023-05-22T01:13:40;101217.44;;;26.89;47.85
37832;BME280;23671;38.090;-122.570;2023-05-22T01:24:44;101210.63;;;26.73;47.64
37832;BME280;23671;38.090;-122.570;2023-05-22T01:33:03;101217.09;;;26.59;47.97
37832;BME280;23671;38.090;-122.570;2023-05-22T01:35:33;101218.38;;;26.57;47.83
37832;BME280;23671;38.090;-122.570;2023-05-22T01:38:08;101211.50;;;26.54;47.96
37832;BME280;23671;38.090;-122.570;2023-05-22T01:43:30;101208.38;;;26.44;48.05
37832;BME280;23671;38.090;-122.570;2023-05-22T01:46:00;101212.38;;;26.42;48.01
37832;BME280;23671;38.090;-122.570;2023-05-22T01:48:27;101211.94;;;26.38;47.82
37832;BME280;23671;38.090;-122.570;2023-05-22T01:50:56;101214.25;;;26.35;47.84
37832;BME280;23671;38.090;-122.570;2023-05-22T01:53:44;101211.34;;;26.30;47.77
37832;BME280;23671;38.090;-122.570;2023-05-22T01:56:22;101208.25;;;26.26;47.68
37832;BME280;23671;38.090;-122.570;2023-05-22T01:59:19;101211.34;;;26.23;47.59
37832;BME280;23671;38.090;-122.570;2023-05-22T02:01:50;101210.31;;;26.18;47.52
37832;BME280;23671;38.090;-122.570;2023-05-22T02:04:20;101218.03;;;26.14;47.42
37832;BME280;23671;38.090;-122.570;2023-05-22T02:06:54;101213.47;;;26.08;47.49
37832;BME280;23671;38.090;-122.570;2023-05-22T02:09:30;101221.16;;;26.04;47.17
37832;BME280;23671;38.090;-122.570;2023-05-22T02:12:01;101221.75;;;26.00;47.28
37832;BME280;23671;38.090;-122.570;2023-05-22T02:14:29;101214.28;;;25.95;47.09
37832;BME280;23671;38.090;-122.570;2023-05-22T02:16:57;101218.63;;;25.90;47.07
37832;BME280;23671;38.090;-122.570;2023-05-22T02:19:36;101225.72;;;25.84;46.73
37832;BME280;23671;38.090;-122.570;2023-05-22T02:22:04;101223.44;;;25.81;46.22
37832;BME280;23671;38.090;-122.570;2023-05-22T02:24:34;101224.91;;;25.77;46.47
37832;BME280;23671;38.090;-122.570;2023-05-22T02:27:11;101223.66;;;25.73;46.29
37832;BME280;23671;38.090;-122.570;2023-05-22T02:29:38;101226.16;;;25.68;46.39
37832;BME280;23671;38.090;-122.570;2023-05-22T02:32:06;101219.09;;;25.61;45.63
37832;BME280;23671;38.090;-122.570;2023-05-22T02:34:33;101222.19;;;25.58;45.75
37832;BME280;23671;38.090;-122.570;2023-05-22T02:37:06;101217.59;;;25.52;45.80
37832;BME280;23671;38.090;-122.570;2023-05-22T02:39:33;101224.66;;;25.46;45.72
37832;BME280;23671;38.090;-122.570;2023-05-22T02:42:00;101227.34;;;25.40;45.31
37832;BME280;23671;38.090;-122.570;2023-05-22T02:44:27;101241.47;;;25.35;45.01
37832;BME280;23671;38.090;-122.570;2023-05-22T02:47:18;101244.97;;;25.29;44.81
37832;BME280;23671;38.090;-122.570;2023-05-22T02:49:50;101249.34;;;25.23;44.66
37832;BME280;23671;38.090;-122.570;2023-05-22T02:52:18;101252.00;;;25.17;44.10
37832;BME280;23671;38.090;-122.570;2023-05-22T02:54:45;101260.75;;;25.12;44.47
37832;BME280;23671;38.090;-122.570;2023-05-22T02:57:12;101262.38;;;25.07;43.79
37832;BME280;23671;38.090;-122.570;2023-05-22T02:59:39;101257.81;;;25.01;43.99
37832;BME280;23671;38.090;-122.570;2023-05-22T03:02:07;101265.66;;;24.96;43.69
37832;BME280;23671;38.090;-122.570;2023-05-22T03:04:34;101261.06;;;24.90;43.75
37832;BME280;23671;38.090;-122.570;2023-05-22T03:07:04;101264.75;;;24.82;43.66
37832;BME280;23671;38.090;-122.570;2023-05-22T03:09:32;101263.31;;;24.80;43.59
37832;BME280;23671;38.090;-122.570;2023-05-22T03:11:59;101258.06;;;24.72;43.53
37832;BME280;23671;38.090;-122.570;2023-05-22T03:14:26;101250.94;;;24.64;43.84
37832;BME280;23671;38.090;-122.570;2023-05-22T03:16:54;101252.75;;;24.57;43.92
37832;BME280;23671;38.090;-122.570;2023-05-22T03:19:22;101253.38;;;24.53;44.00
37832;BME280;23671;38.090;-122.570;2023-05-22T03:21:52;101255.81;;;24.48;44.13
37832;BME280;23671;38.090;-122.570;2023-05-22T03:24:19;101259.50;;;24.40;44.07
37832;BME280;23671;38.090;-122.570;2023-05-22T03:26:46;101257.59;;;24.34;43.77
37832;BME280;23671;38.090;-122.570;2023-05-22T03:29:13;101263.78;;;24.28;43.99
37832;BME280;23671;38.090;-122.570;2023-05-22T03:31:42;101257.72;;;24.19;44.11
37832;BME280;23671;38.090;-122.570;2023-05-22T03:34:09;101262.22;;;24.12;44.19
37832;BME280;23671;38.090;-122.570;2023-05-22T03:36:36;101259.28;;;24.07;44.20
37832;BME280;23671;38.090;-122.570;2023-05-22T03:39:04;101260.22;;;24.00;44.05
37832;BME280;23671;38.090;-122.570;2023-05-22T03:41:31;101266.38;;;23.94;44.04
37832;BME280;23671;38.090;-122.570;2023-05-22T03:43:58;101259.28;;;23.86;44.26
37832;BME280;23671;38.090;-122.570;2023-05-22T03:46:25;101258.75;;;23.76;44.48
37832;BME280;23671;38.090;-122.570;2023-05-22T03:48:53;101257.69;;;23.71;44.19
37832;BME280;23671;38.090;-122.570;2023-05-22T03:51:20;101254.09;;;23.64;44.39
37832;BME280;23671;38.090;-122.570;2023-05-22T03:53:47;101255.69;;;23.58;44.78
37832;BME280;23671;38.090;-122.570;2023-05-22T03:56:14;101258.72;;;23.49;44.48
37832;BME280;23671;38.090;-122.570;2023-05-22T03:58:41;101258.25;;;23.45;44.87
37832;BME280;23671;38.090;-122.570;2023-05-22T04:01:08;101259.84;;;23.39;44.55
37832;BME280;23671;38.090;-122.570;2023-05-22T04:03:39;101262.50;;;23.33;44.02
37832;BME280;23671;38.090;-122.570;2023-05-22T04:06:06;101262.56;;;23.25;44.54
37832;BME280;23671;38.090;-122.570;2023-05-22T04:08:33;101264.16;;;23.19;44.79
37832;BME280;23671;38.090;-122.570;2023-05-22T04:11:00;101264.09;;;23.13;44.21
37832;BME280;23671;38.090;-122.570;2023-05-22T04:13:28;101264.00;;;23.06;43.96
37832;BME280;23671;38.090;-122.570;2023-05-22T04:15:56;101256.84;;;22.99;43.95
37832;BME280;23671;38.090;-122.570;2023-05-22T04:18:23;101271.09;;;22.93;43.74
37832;BME280;23671;38.090;-122.570;2023-05-22T04:20:50;101260.88;;;22.88;43.60
37832;BME280;23671;38.090;-122.570;2023-05-22T04:23:17;101267.00;;;22.82;43.53
37832;BME280;23671;38.090;-122.570;2023-05-22T04:25:44;101262.75;;;22.73;43.50
37832;BME280;23671;38.090;-122.570;2023-05-22T04:28:13;101256.44;;;22.66;43.71
37832;BME280;23671;38.090;-122.570;2023-05-22T04:30:43;101260.91;;;22.59;43.64
37832;BME280;23671;38.090;-122.570;2023-05-22T04:33:10;101263.28;;;22.54;43.52
37832;BME280;23671;38.090;-122.570;2023-05-22T04:35:38;101259.66;;;22.47;43.51
37832;BME280;23671;38.090;-122.570;2023-05-22T04:38:06;101269.69;;;22.38;43.75
37832;BME280;23671;38.090;-122.570;2023-05-22T04:40:33;101267.06;;;22.30;44.00
37832;BME280;23671;38.090;-122.570;2023-05-22T04:43:00;101267.63;;;22.26;43.95
37832;BME280;23671;38.090;-122.570;2023-05-22T04:45:28;101269.56;;;22.17;43.96
37832;BME280;23671;38.090;-122.570;2023-05-22T04:47:56;101272.31;;;22.09;43.91
37832;BME280;23671;38.090;-122.570;2023-05-22T04:50:23;101277.59;;;22.03;44.09
37832;BME280;23671;38.090;-122.570;2023-05-22T04:52:50;101279.16;;;21.97;43.88
37832;BME280;23671;38.090;-122.570;2023-05-22T04:55:18;101276.53;;;21.89;44.20
37832;BME280;23671;38.090;-122.570;2023-05-22T04:57:47;101283.66;;;21.82;44.23
37832;BME280;23671;38.090;-122.570;2023-05-22T05:00:14;101280.00;;;21.75;44.25
37832;BME280;23671;38.090;-122.570;2023-05-22T05:02:42;101283.53;;;21.67;44.34
37832;BME280;23671;38.090;-122.570;2023-05-22T05:05:09;101282.41;;;21.62;44.41
37832;BME280;23671;38.090;-122.570;2023-05-22T05:07:37;101295.19;;;21.60;44.45
37832;BME280;23671;38.090;-122.570;2023-05-22T05:10:05;101298.97;;;21.51;44.42
37832;BME280;23671;38.090;-122.570;2023-05-22T05:12:32;101289.94;;;21.44;44.55
37832;BME280;23671;38.090;-122.570;2023-05-22T05:14:59;101288.97;;;21.37;44.50
37832;BME280;23671;38.090;-122.570;2023-05-22T05:17:26;101296.91;;;21.30;44.68
37832;BME280;23671;38.090;-122.570;2023-05-22T05:19:54;101305.84;;;21.23;44.73
37832;BME280;23671;38.090;-122.570;2023-05-22T05:22:21;101308.22;;;21.18;44.80
37832;BME280;23671;38.090;-122.570;2023-05-22T05:24:48;101309.09;;;21.10;44.80
37832;BME280;23671;38.090;-122.570;2023-05-22T05:27:15;101306.94;;;21.06;44.85
37832;BME280;23671;38.090;-122.570;2023-05-22T05:29:42;101307.28;;;21.03;44.98
37832;BME280;23671;38.090;-122.570;2023-05-22T05:32:09;101302.94;;;20.94;45.00
37832;BME280;23671;38.090;-122.570;2023-05-22T05:34:38;101303.81;;;20.86;45.24
37832;BME280;23671;38.090;-122.570;2023-05-22T05:37:05;101309.00;;;20.79;45.06
37832;BME280;23671;38.090;-122.570;2023-05-22T05:39:32;101299.63;;;20.75;45.22
37832;BME280;23671;38.090;-122.570;2023-05-22T05:41:59;101307.56;;;20.69;45.23
37832;BME280;23671;38.090;-122.570;2023-05-22T05:44:26;101300.34;;;20.61;45.28
37832;BME280;23671;38.090;-122.570;2023-05-22T05:46:54;101296.69;;;20.54;45.38
37832;BME280;23671;38.090;-122.570;2023-05-22T05:49:21;101293.81;;;20.48;45.44
37832;BME280;23671;38.090;-122.570;2023-05-22T05:51:48;101292.53;;;20.44;45.39
37832;BME280;23671;38.090;-122.570;2023-05-22T05:54:15;101286.81;;;20.39;45.50
37832;BME280;23671;38.090;-122.570;2023-05-22T05:56:42;101284.66;;;20.34;45.50
37832;BME280;23671;38.090;-122.570;2023-05-22T05:59:09;101283.66;;;20.27;45.66
37832;BME280;23671;38.090;-122.570;2023-05-22T06:01:37;101290.34;;;20.23;45.78
37832;BME280;23671;38.090;-122.570;2023-05-22T06:04:05;101286.00;;;20.14;45.89
37832;BME280;23671;38.090;-122.570;2023-05-22T06:06:34;101288.34;;;20.09;45.91
37832;BME280;23671;38.090;-122.570;2023-05-22T06:09:02;101288.19;;;20.03;46.00
37832;BME280;23671;38.090;-122.570;2023-05-22T06:11:32;101291.34;;;19.98;45.87
37832;BME280;23671;38.090;-122.570;2023-05-22T06:14:01;101290.53;;;19.89;46.15
37832;BME280;23671;38.090;-122.570;2023-05-22T06:16:31;101292.84;;;19.84;46.06
37832;BME280;23671;38.090;-122.570;2023-05-22T06:18:58;101281.97;;;19.78;46.13
37832;BME280;23671;38.090;-122.570;2023-05-22T06:21:25;101275.59;;;19.71;46.14
37832;BME280;23671;38.090;-122.570;2023-05-22T06:23:52;101281.66;;;19.65;46.32
37832;BME280;23671;38.090;-122.570;2023-05-22T06:26:19;101277.63;;;19.61;46.29
37832;BME280;23671;38.090;-122.570;2023-05-22T06:28:47;101284.31;;;19.57;46.50
37832;BME280;23671;38.090;-122.570;2023-05-22T06:31:14;101272.25;;;19.53;46.46
37832;BME280;23671;38.090;-122.570;2023-05-22T06:33:41;101284.28;;;19.49;46.28
37832;BME280;23671;38.090;-122.570;2023-05-22T06:36:09;101281.94;;;19.46;46.35
37832;BME280;23671;38.090;-122.570;2023-05-22T06:38:38;101288.66;;;19.42;46.49
37832;BME280;23671;38.090;-122.570;2023-05-22T06:41:05;101291.28;;;19.34;46.51
37832;BME280;23671;38.090;-122.570;2023-05-22T06:43:33;101294.25;;;19.31;46.56
37832;BME280;23671;38.090;-122.570;2023-05-22T06:46:00;101298.44;;;19.25;46.54
37832;BME280;23671;38.090;-122.570;2023-05-22T06:48:27;101284.88;;;19.19;46.73
37832;BME280;23671;38.090;-122.570;2023-05-22T06:50:54;101291.56;;;19.15;46.58
37832;BME280;23671;38.090;-122.570;2023-05-22T06:53:21;101291.19;;;19.10;47.13
37832;BME280;23671;38.090;-122.570;2023-05-22T06:55:49;101299.72;;;19.05;46.80
37832;BME280;23671;38.090;-122.570;2023-05-22T06:58:16;101300.34;;;18.99;46.67
37832;BME280;23671;38.090;-122.570;2023-05-22T07:00:44;101285.63;;;18.95;46.80
37832;BME280;23671;38.090;-122.570;2023-05-22T07:03:11;101285.25;;;18.90;46.90
37832;BME280;23671;38.090;-122.570;2023-05-22T07:05:38;101285.75;;;18.85;46.91
37832;BME280;23671;38.090;-122.570;2023-05-22T07:08:05;101280.88;;;18.81;46.96
37832;BME280;23671;38.090;-122.570;2023-05-22T07:10:33;101275.31;;;18.74;47.00
37832;BME280;23671;38.090;-122.570;2023-05-22T07:13:00;101282.97;;;18.69;47.12
37832;BME280;23671;38.090;-122.570;2023-05-22T07:15:27;101281.63;;;18.65;46.99
37832;BME280;23671;38.090;-122.570;2023-05-22T07:17:54;101279.41;;;18.61;47.13
37832;BME280;23671;38.090;-122.570;2023-05-22T07:20:21;101283.72;;;18.54;47.30
37832;BME280;23671;38.090;-122.570;2023-05-22T07:22:50;101281.53;;;18.49;47.40
37832;BME280;23671;38.090;-122.570;2023-05-22T07:25:18;101287.53;;;18.43;47.39
37832;BME280;23671;38.090;-122.570;2023-05-22T07:27:45;101286.13;;;18.39;47.41
37832;BME280;23671;38.090;-122.570;2023-05-22T07:30:12;101284.78;;;18.35;47.43
37832;BME280;23671;38.090;-122.570;2023-05-22T07:32:39;101277.72;;;18.34;47.41
37832;BME280;23671;38.090;-122.570;2023-05-22T07:35:07;101282.88;;;18.28;47.32
37832;BME280;23671;38.090;-122.570;2023-05-22T07:37:36;101275.50;;;18.22;47.68
37832;BME280;23671;38.090;-122.570;2023-05-22T07:40:07;101267.75;;;18.18;47.45
37832;BME280;23671;38.090;-122.570;2023-05-22T07:42:35;101267.56;;;18.12;47.57
37832;BME280;23671;38.090;-122.570;2023-05-22T07:45:03;101269.84;;;18.07;47.54
37832;BME280;23671;38.090;-122.570;2023-05-22T07:47:31;101270.03;;;18.05;47.78
37832;BME280;23671;38.090;-122.570;2023-05-22T07:49:58;101265.47;;;17.98;47.82
37832;BME280;23671;38.090;-122.570;2023-05-22T07:52:25;101264.59;;;17.97;47.64
37832;BME280;23671;38.090;-122.570;2023-05-22T07:54:52;101263.25;;;17.93;47.56
37832;BME280;23671;38.090;-122.570;2023-05-22T07:57:19;101266.41;;;17.89;47.68
37832;BME280;23671;38.090;-122.570;2023-05-22T07:59:46;101261.66;;;17.83;48.17
37832;BME280;23671;38.090;-122.570;2023-05-22T08:02:13;101256.78;;;17.78;47.69
37832;BME280;23671;38.090;-122.570;2023-05-22T08:04:40;101254.72;;;17.72;48.02
37832;BME280;23671;38.090;-122.570;2023-05-22T08:07:07;101254.19;;;17.69;47.92
37832;BME280;23671;38.090;-122.570;2023-05-22T08:09:34;101261.84;;;17.64;48.13
37832;BME280;23671;38.090;-122.570;2023-05-22T08:12:01;101258.47;;;17.62;47.91
37832;BME280;23671;38.090;-122.570;2023-05-22T08:14:30;101262.28;;;17.59;48.12
37832;BME280;23671;38.090;-122.570;2023-05-22T08:16:57;101268.09;;;17.55;48.30
37832;BME280;23671;38.090;-122.570;2023-05-22T08:19:24;101261.38;;;17.51;48.08
37832;BME280;23671;38.090;-122.570;2023-05-22T08:21:52;101257.31;;;17.47;48.32
37832;BME280;23671;38.090;-122.570;2023-05-22T08:24:24;101262.94;;;17.44;48.37
37832;BME280;23671;38.090;-122.570;2023-05-22T08:26:56;101260.88;;;17.38;48.16
37832;BME280;23671;38.090;-122.570;2023-05-22T08:29:27;101256.81;;;17.34;48.33
37832;BME280;23671;38.090;-122.570;2023-05-22T08:31:54;101262.47;;;17.31;48.71
37832;BME280;23671;38.090;-122.570;2023-05-22T08:34:23;101267.44;;;17.25;48.15
37832;BME280;23671;38.090;-122.570;2023-05-22T08:36:50;101263.22;;;17.23;48.32
37832;BME280;23671;38.090;-122.570;2023-05-22T08:39:17;101261.00;;;17.18;48.65
37832;BME280;23671;38.090;-122.570;2023-05-22T08:41:45;101266.66;;;17.15;48.74
37832;BME280;23671;38.090;-122.570;2023-05-22T08:44:13;101261.91;;;17.09;48.41
37832;BME280;23671;38.090;-122.570;2023-05-22T08:46:40;101264.91;;;17.06;48.50
37832;BME280;23671;38.090;-122.570;2023-05-22T08:49:09;101268.69;;;17.04;48.82
37832;BME280;23671;38.090;-122.570;2023-05-22T08:51:40;101252.44;;;16.97;48.50
37832;BME280;23671;38.090;-122.570;2023-05-22T08:54:10;101260.59;;;16.96;48.42
37832;BME280;23671;38.090;-122.570;2023-05-22T08:56:37;101258.34;;;16.91;48.72
37832;BME280;23671;38.090;-122.570;2023-05-22T08:59:05;101264.97;;;16.87;48.83
37832;BME280;23671;38.090;-122.570;2023-05-22T09:01:33;101256.97;;;16.87;48.88
37832;BME280;23671;38.090;-122.570;2023-05-22T09:04:01;101248.75;;;16.81;48.59
37832;BME280;23671;38.090;-122.570;2023-05-22T09:06:29;101246.22;;;16.79;48.75
37832;BME280;23671;38.090;-122.570;2023-05-22T09:09:00;101249.50;;;16.73;48.82
37832;BME280;23671;38.090;-122.570;2023-05-22T09:11:28;101252.44;;;16.70;49.03
37832;BME280;23671;38.090;-122.570;2023-05-22T09:14:10;101251.91;;;16.67;48.75
37832;BME280;23671;38.090;-122.570;2023-05-22T09:16:55;101249.13;;;16.59;49.06
37832;BME280;23671;38.090;-122.570;2023-05-22T09:19:22;101250.97;;;16.58;49.16
37832;BME280;23671;38.090;-122.570;2023-05-22T09:21:49;101261.91;;;16.55;48.86
37832;BME280;23671;38.090;-122.570;2023-05-22T09:24:16;101256.19;;;16.50;49.06
37832;BME280;23671;38.090;-122.570;2023-05-22T09:26:43;101254.75;;;16.46;48.92
37832;BME280;23671;38.090;-122.570;2023-05-22T09:29:11;101243.69;;;16.41;49.02
37832;BME280;23671;38.090;-122.570;2023-05-22T09:31:42;101249.31;;;16.38;49.44
37832;BME280;23671;38.090;-122.570;2023-05-22T09:34:10;101253.94;;;16.36;49.16
37832;BME280;23671;38.090;-122.570;2023-05-22T09:36:41;101248.78;;;16.34;49.53
37832;BME280;23671;38.090;-122.570;2023-05-22T09:39:08;101246.53;;;16.30;49.29
37832;BME280;23671;38.090;-122.570;2023-05-22T09:41:36;101247.53;;;16.29;49.26
37832;BME280;23671;38.090;-122.570;2023-05-22T09:44:12;101239.97;;;16.24;49.53
37832;BME280;23671;38.090;-122.570;2023-05-22T09:46:45;101246.56;;;16.20;49.29
37832;BME280;23671;38.090;-122.570;2023-05-22T09:49:12;101244.03;;;16.19;49.23
37832;BME280;23671;38.090;-122.570;2023-05-22T09:51:40;101242.66;;;16.15;49.38
37832;BME280;23671;38.090;-122.570;2023-05-22T09:54:08;101249.94;;;16.13;49.22
37832;BME280;23671;38.090;-122.570;2023-05-22T09:56:37;101247.59;;;16.10;49.28
37832;BME280;23671;38.090;-122.570;2023-05-22T09:59:08;101237.19;;;16.07;49.45
37832;BME280;23671;38.090;-122.570;2023-05-22T10:01:39;101232.88;;;16.06;49.61
37832;BME280;23671;38.090;-122.570;2023-05-22T10:04:11;101227.13;;;16.01;49.52
37832;BME280;23671;38.090;-122.570;2023-05-22T10:06:43;101233.84;;;15.95;49.61
37832;BME280;23671;38.090;-122.570;2023-05-22T10:09:15;101230.34;;;15.95;49.45
37832;BME280;23671;38.090;-122.570;2023-05-22T10:11:43;101228.69;;;15.94;49.78
37832;BME280;23671;38.090;-122.570;2023-05-22T10:14:11;101228.97;;;15.91;49.47
37832;BME280;23671;38.090;-122.570;2023-05-22T10:16:39;101226.59;;;15.88;49.60
37832;BME280;23671;38.090;-122.570;2023-05-22T10:19:07;101227.00;;;15.83;49.55
37832;BME280;23671;38.090;-122.570;2023-05-22T10:21:35;101234.44;;;15.80;49.63
37832;BME280;23671;38.090;-122.570;2023-05-22T10:24:03;101230.25;;;15.77;49.78
37832;BME280;23671;38.090;-122.570;2023-05-22T10:26:31;101227.72;;;15.76;49.57
37832;BME280;23671;38.090;-122.570;2023-05-22T10:29:11;101228.88;;;15.73;49.75
37832;BME280;23671;38.090;-122.570;2023-05-22T10:31:45;101224.66;;;15.71;49.58
37832;BME280;23671;38.090;-122.570;2023-05-22T10:34:30;101224.09;;;15.67;49.82
37832;BME280;23671;38.090;-122.570;2023-05-22T10:40:01;101218.50;;;15.61;49.73
37832;BME280;23671;38.090;-122.570;2023-05-22T10:42:34;101208.13;;;15.58;49.81
37832;BME280;23671;38.090;-122.570;2023-05-22T10:45:05;101200.31;;;15.56;49.83
37832;BME280;23671;38.090;-122.570;2023-05-22T10:47:33;101205.19;;;15.51;49.75
37832;BME280;23671;38.090;-122.570;2023-05-22T10:50:08;101197.34;;;15.50;49.99
37832;BME280;23671;38.090;-122.570;2023-05-22T10:52:37;101194.84;;;15.48;49.87
37832;BME280;23671;38.090;-122.570;2023-05-22T10:55:08;101189.63;;;15.46;49.88
37832;BME280;23671;38.090;-122.570;2023-05-22T10:57:40;101190.06;;;15.42;50.07
37832;BME280;23671;38.090;-122.570;2023-05-22T11:00:11;101191.88;;;15.41;49.81
37832;BME280;23671;38.090;-122.570;2023-05-22T11:02:42;101190.06;;;15.42;49.81
37832;BME280;23671;38.090;-122.570;2023-05-22T11:07:48;101197.72;;;15.35;50.00
37832;BME280;23671;38.090;-122.570;2023-05-22T11:10:25;101188.50;;;15.30;50.03
37832;BME280;23671;38.090;-122.570;2023-05-22T11:13:11;101186.94;;;15.27;49.85
37832;BME280;23671;38.090;-122.570;2023-05-22T11:15:44;101185.53;;;15.23;49.84
37832;BME280;23671;38.090;-122.570;2023-05-22T11:18:11;101189.91;;;15.24;50.04
37832;BME280;23671;38.090;-122.570;2023-05-22T11:20:40;101186.69;;;15.21;49.94
37832;BME280;23671;38.090;-122.570;2023-05-22T11:23:10;101176.84;;;15.21;49.92
37832;BME280;23671;38.090;-122.570;2023-05-22T11:25:38;101182.47;;;15.18;50.06
37832;BME280;23671;38.090;-122.570;2023-05-22T11:28:07;101180.91;;;15.16;50.00
37832;BME280;23671;38.090;-122.570;2023-05-22T11:30:36;101185.69;;;15.12;50.20
37832;BME280;23671;38.090;-122.570;2023-05-22T11:33:04;101190.59;;;15.07;50.30
37832;BME280;23671;38.090;-122.570;2023-05-22T11:35:32;101200.38;;;15.07;50.15
37832;BME280;23671;38.090;-122.570;2023-05-22T11:37:59;101195.91;;;15.07;50.10
37832;BME280;23671;38.090;-122.570;2023-05-22T11:40:29;101196.31;;;15.03;50.00
37832;BME280;23671;38.090;-122.570;2023-05-22T11:42:56;101193.94;;;15.00;50.14
37832;BME280;23671;38.090;-122.570;2023-05-22T11:45:24;101195.06;;;14.97;50.25
37832;BME280;23671;38.090;-122.570;2023-05-22T11:47:51;101192.69;;;14.94;50.16
37832;BME280;23671;38.090;-122.570;2023-05-22T11:50:18;101191.13;;;14.92;50.27
37832;BME280;23671;38.090;-122.570;2023-05-22T11:52:45;101193.94;;;14.90;50.37
37832;BME280;23671;38.090;-122.570;2023-05-22T11:55:12;101182.84;;;14.85;50.27
37832;BME280;23671;38.090;-122.570;2023-05-22T11:57:39;101190.81;;;14.85;50.30
37832;BME280;23671;38.090;-122.570;2023-05-22T12:00:07;101192.91;;;14.82;50.34
37832;BME280;23671;38.090;-122.570;2023-05-22T12:02:35;101196.69;;;14.79;50.14
37832;BME280;23671;38.090;-122.570;2023-05-22T12:05:03;101196.81;;;14.78;50.31
37832;BME280;23671;38.090;-122.570;2023-05-22T12:07:31;101198.63;;;14.77;50.38
37832;BME280;23671;38.090;-122.570;2023-05-22T12:09:58;101196.41;;;14.73;50.41
37832;BME280;23671;38.090;-122.570;2023-05-22T12:12:26;101193.19;;;14.69;50.48
37832;BME280;23671;38.090;-122.570;2023-05-22T12:14:53;101186.03;;;14.70;50.42
37832;BME280;23671;38.090;-122.570;2023-05-22T12:17:21;101187.28;;;14.66;50.46
37832;BME280;23671;38.090;-122.570;2023-05-22T12:19:48;101191.06;;;14.63;50.55
37832;BME280;23671;38.090;-122.570;2023-05-22T12:22:15;101188.56;;;14.62;50.59
37832;BME280;23671;38.090;-122.570;2023-05-22T12:24:43;101187.13;;;14.57;50.65
37832;BME280;23671;38.090;-122.570;2023-05-22T12:27:13;101192.56;;;14.56;50.35
37832;BME280;23671;38.090;-122.570;2023-05-22T12:29:42;101188.50;;;14.52;50.71
37832;BME280;23671;38.090;-122.570;2023-05-22T12:32:10;101185.16;;;14.50;50.59
37832;BME280;23671;38.090;-122.570;2023-05-22T12:34:45;101184.44;;;14.48;50.77
37832;BME280;23671;38.090;-122.570;2023-05-22T12:37:20;101188.22;;;14.45;50.70
37832;BME280;23671;38.090;-122.570;2023-05-22T12:39:54;101192.94;;;14.42;50.87
37832;BME280;23671;38.090;-122.570;2023-05-22T12:42:22;101190.41;;;14.40;50.57
37832;BME280;23671;38.090;-122.570;2023-05-22T12:44:54;101195.03;;;14.38;50.77
37832;BME280;23671;38.090;-122.570;2023-05-22T12:47:23;101208.44;;;14.37;50.76
37832;BME280;23671;38.090;-122.570;2023-05-22T12:49:50;101212.22;;;14.34;50.66
37832;BME280;23671;38.090;-122.570;2023-05-22T12:52:17;101209.69;;;14.33;50.60